Time;durP1;ratioP1;P1;durP2;ratioP2;P2;SDS_P1;SDS_P2;PMS_P1;PMS_P2;Temp;Humidity;BMP_temperature;BMP_pressure;BME280_temperature;BME280_humidity;BME280_pressure;Samples;Min_cycle;Max_cycle;Signal;HPM_P1;HPM_P2
2023/09/21 00:00:16;;;;;;;;;;;16.70;99.90;;;;;;5114127;28;20220;-63
2023/09/21 00:02:49;;;;;;;0.40;0.40;;;16.60;99.90;;;;;;5112221;28;19920;-62
2023/09/21 00:05:17;;;;;;;0.10;0.10;;;16.50;99.90;;;;;;5113675;28;20052;-64
2023/09/21 00:07:43;;;;;;;0.63;0.63;;;16.90;99.90;;;;;;5113741;28;20048;-65
2023/09/21 00:10:09;;;;;;;0.22;0.22;;;16.90;99.90;;;;;;5113752;28;20086;-64
2023/09/21 00:12:35;;;;;;;;;;;16.80;99.90;;;;;;5113929;28;20505;-63
2023/09/21 00:15:06;;;;;;;0.32;0.32;;;16.70;99.90;;;;;;5113407;28;19926;-62
2023/09/21 00:17:39;;;;;;;0.30;0.30;;;17.00;99.90;;;;;;5113447;28;20806;-62
2023/09/21 00:20:12;;;;;;;0.50;0.50;;;16.60;99.90;;;;;;5113636;28;20052;-64
2023/09/21 00:22:38;;;;;;;0.50;0.50;;;17.00;99.90;;;;;;5113783;28;20093;-63
2023/09/21 00:25:04;;;;;;;;;;;17.00;99.90;;;;;;5113200;28;20078;-62
2023/09/21 00:27:30;;;;;;;0.45;0.45;;;17.30;99.90;;;;;;5113649;28;20000;-63
2023/09/21 00:29:56;;;;;;;0.20;0.20;;;17.00;99.90;;;;;;5113555;28;20089;-62
2023/09/21 00:32:21;;;;;;;0.00;0.00;;;17.20;99.90;;;;;;5113289;28;20046;-63
2023/09/21 00:34:50;;;;;;;;;;;16.90;99.90;;;;;;5113912;28;20109;-62
2023/09/21 00:37:17;;;;;;;9.15;0.55;;;16.80;99.90;;;;;;5113527;28;20002;-63
2023/09/21 00:39:43;;;;;;;0.15;0.15;;;16.70;99.90;;;;;;5113426;28;20078;-63
2023/09/21 00:42:09;;;;;;;0.10;0.10;;;16.60;99.90;;;;;;5112074;28;20162;-63
2023/09/21 00:44:34;;;;;;;0.20;0.20;;;17.00;99.90;;;;;;5113332;28;20539;-63
2023/09/21 00:47:00;;;;;;;;;;;16.80;99.90;;;;;;5113825;28;20462;-63
2023/09/21 00:49:27;;;;;;;0.65;0.65;;;16.70;99.90;;;;;;5113390;28;19923;-63
2023/09/21 00:51:55;;;;;;;0.25;0.20;;;17.20;99.90;;;;;;5113488;28;20040;-64
2023/09/21 00:54:22;;;;;;;0.17;0.17;;;17.10;99.90;;;;;;5113380;28;20097;-63
2023/09/21 00:56:51;;;;;;;0.73;0.32;;;17.20;99.90;;;;;;5113267;28;20534;-63
2023/09/21 00:59:19;;;;;;;0.20;0.20;;;17.10;99.90;;;;;;5113143;28;20441;-62
2023/09/21 01:01:46;;;;;;;0.75;0.75;;;17.10;99.90;;;;;;5111509;28;20043;-62
2023/09/21 01:04:12;;;;;;;0.32;0.32;;;17.30;99.90;;;;;;5113005;28;20052;-63
2023/09/21 01:06:39;;;;;;;1.10;0.95;;;17.00;99.90;;;;;;5112961;28;20130;-63
2023/09/21 01:09:08;;;;;;;0.40;0.40;;;17.30;99.90;;;;;;5112912;28;20050;-62
2023/09/21 01:11:37;;;;;;;0.10;0.10;;;17.50;99.90;;;;;;5112830;28;20059;-64
2023/09/21 01:14:04;;;;;;;0.38;0.38;;;16.90;99.90;;;;;;5112790;28;20043;-63
2023/09/21 01:16:30;;;;;;;0.25;0.20;;;17.70;99.90;;;;;;5112708;28;20376;-63
2023/09/21 01:18:56;;;;;;;0.25;0.25;;;17.30;99.90;;;;;;5112673;28;20077;-63
2023/09/21 01:21:35;;;;;;;0.50;0.50;;;17.30;99.90;;;;;;5112514;28;20050;-62
2023/09/21 01:24:01;;;;;;;0.15;0.15;;;17.30;99.90;;;;;;5112619;28;20089;-63
2023/09/21 01:26:27;;;;;;;0.40;0.40;;;17.20;99.90;;;;;;5112495;28;20074;-63
2023/09/21 01:28:56;;;;;;;0.47;0.45;;;17.50;99.90;;;;;;5112525;28;20052;-65
2023/09/21 01:31:22;;;;;;;0.50;0.50;;;17.40;99.90;;;;;;5112498;28;20051;-63
2023/09/21 01:33:48;;;;;;;0.38;0.30;;;17.40;99.90;;;;;;5112160;28;20057;-63
2023/09/21 01:36:15;;;;;;;0.10;0.10;;;17.50;99.90;;;;;;5112239;28;20048;-63
2023/09/21 01:38:46;;;;;;;0.20;0.20;;;17.50;99.90;;;;;;5112617;28;20153;-63
2023/09/21 01:41:16;;;;;;;0.28;0.28;;;17.50;99.90;;;;;;5112567;28;20043;-63
2023/09/21 01:43:42;;;;;;;0.25;0.25;;;17.50;99.90;;;;;;5112645;28;20054;-61
2023/09/21 01:46:08;;;;;;;0.10;0.10;;;17.60;99.90;;;;;;5112379;28;20467;-63
2023/09/21 01:48:34;;;;;;;0.75;0.75;;;17.70;99.90;;;;;;5112238;28;20091;-64
2023/09/21 01:51:00;;;;;;;0.20;0.20;;;17.20;99.90;;;;;;5112230;28;20104;-64
2023/09/21 01:53:26;;;;;;;0.10;0.10;;;17.60;99.90;;;;;;5112242;28;20046;-63
2023/09/21 01:55:52;;;;;;;0.20;0.20;;;17.60;99.90;;;;;;5112484;28;20039;-63
2023/09/21 01:58:22;;;;;;;3.00;0.73;;;17.30;99.90;;;;;;5112195;28;20051;-63
2023/09/21 02:00:48;;;;;;;0.10;0.10;;;17.50;99.90;;;;;;5112151;28;20048;-62
2023/09/21 02:03:18;;;;;;;0.25;0.25;;;17.80;99.90;;;;;;5110221;28;20051;-63
2023/09/21 02:05:46;;;;;;;0.30;0.30;;;17.40;99.90;;;;;;5112105;28;20067;-63
2023/09/21 02:08:12;;;;;;;0.20;0.20;;;17.60;99.90;;;;;;5111108;28;20043;-62
2023/09/21 02:10:40;;;;;;;0.15;0.15;;;17.90;99.90;;;;;;5112027;28;20040;-62
2023/09/21 02:13:07;;;;;;;0.28;0.28;;;17.60;99.90;;;;;;5112071;28;20126;-63
2023/09/21 02:15:38;;;;;;;0.43;0.30;;;17.80;99.90;;;;;;5112020;28;20047;-62
2023/09/21 02:18:06;;;;;;;0.82;0.57;;;17.60;99.90;;;;;;5112114;28;20095;-65
2023/09/21 02:20:35;;;;;;;0.30;0.30;;;17.70;99.90;;;;;;5110907;28;20047;-62
2023/09/21 02:23:02;;;;;;;0.52;0.43;;;17.70;99.90;;;;;;5112140;28;20044;-63
2023/09/21 02:25:34;;;;;;;0.10;0.10;;;17.40;99.90;;;;;;5112065;28;20049;-63
2023/09/21 02:28:04;;;;;;;0.20;0.20;;;17.90;99.90;;;;;;5112004;28;20043;-63
2023/09/21 02:30:32;;;;;;;0.35;0.32;;;17.70;99.90;;;;;;5111926;28;20048;-64
2023/09/21 02:32:59;;;;;;;0.55;0.55;;;17.60;99.90;;;;;;5111804;28;20036;-63
2023/09/21 02:35:29;;;;;;;0.00;0.00;;;17.70;99.90;;;;;;5111751;28;20104;-64
2023/09/21 02:37:56;;;;;;;0.22;0.22;;;17.60;99.90;;;;;;5111846;28;20056;-62
2023/09/21 02:40:23;;;;;;;0.38;0.38;;;17.80;99.90;;;;;;5110650;28;20043;-63
2023/09/21 02:42:57;;;;;;;0.70;0.20;;;17.80;99.90;;;;;;5111586;28;20079;-63
2023/09/21 02:45:24;;;;;;;0.55;0.55;;;17.80;99.90;;;;;;5111743;28;20493;-63
2023/09/21 02:47:54;;;;;;;0.52;0.40;;;17.40;99.90;;;;;;5111687;28;20551;-63
2023/09/21 02:50:27;;;;;;;0.22;0.22;;;17.60;99.90;;;;;;5115584;28;20072;-64
2023/09/21 02:53:01;;;;;;;0.20;0.20;;;17.60;99.90;;;;;;5115748;28;20047;-65
2023/09/21 02:55:28;;;;;;;0.00;0.00;;;17.80;99.90;;;;;;5115660;28;20361;-63
2023/09/21 02:57:56;;;;;;;0.20;0.20;;;17.40;99.90;;;;;;5114067;28;20403;-64
2023/09/21 03:00:39;;;;;;;0.40;0.40;;;17.80;99.90;;;;;;5115414;27;20100;-63
2023/09/21 03:03:06;;;;;;;0.38;0.38;;;17.40;99.90;;;;;;5115220;28;20093;-63
2023/09/21 03:05:33;;;;;;;0.32;0.32;;;17.60;99.90;;;;;;5115287;27;20048;-63
2023/09/21 03:08:13;;;;;;;1.00;0.57;;;17.70;99.90;;;;;;5115172;28;20050;-63
2023/09/21 03:10:47;;;;;;;0.40;0.40;;;17.40;99.90;;;;;;5114905;27;20568;-63
2023/09/21 03:13:20;;;;;;;0.28;0.28;;;17.80;99.90;;;;;;5114866;28;20480;-63
2023/09/21 03:15:47;;;;;;;0.68;0.20;;;18.00;99.90;;;;;;5115118;28;20079;-64
2023/09/21 03:18:14;;;;;;;0.10;0.10;;;17.90;99.90;;;;;;5115087;28;20047;-64
2023/09/21 03:20:40;;;;;;;0.20;0.20;;;18.20;99.90;;;;;;5114921;28;20547;-65
2023/09/21 03:23:09;;;;;;;0.20;0.20;;;18.00;99.90;;;;;;5115001;28;20054;-62
2023/09/21 03:25:42;;;;;;;0.40;0.40;;;18.00;99.90;;;;;;5114913;28;20055;-65
2023/09/21 03:28:13;;;;;;;0.40;0.30;;;18.10;99.90;;;;;;5114937;28;20118;-63
2023/09/21 03:30:50;;;;;;;9.80;1.75;;;18.20;99.90;;;;;;5114924;28;20043;-64
2023/09/21 03:33:18;;;;;;;0.15;0.15;;;18.00;99.90;;;;;;5115121;28;20101;-63
2023/09/21 03:35:44;;;;;;;0.35;0.35;;;18.10;99.90;;;;;;5114832;28;20052;-63
2023/09/21 03:38:12;;;;;;;0.22;0.22;;;18.10;99.90;;;;;;5114670;28;20051;-62
2023/09/21 03:40:42;;;;;;;0.22;0.22;;;17.80;99.90;;;;;;5114584;28;20483;-63
2023/09/21 03:43:15;;;;;;;1.98;0.43;;;18.50;99.90;;;;;;5114537;28;20145;-63
2023/09/21 03:45:43;;;;;;;1.65;0.60;;;18.00;99.90;;;;;;5114471;27;20537;-64
2023/09/21 03:48:09;;;;;;;0.20;0.20;;;17.80;99.90;;;;;;5114434;28;20405;-64
2023/09/21 03:50:36;;;;;;;0.80;0.52;;;18.00;99.90;;;;;;5114404;28;20528;-65
2023/09/21 03:53:08;;;;;;;0.20;0.20;;;18.10;99.90;;;;;;5114333;28;20138;-64
2023/09/21 03:55:34;;;;;;;0.10;0.10;;;18.20;99.90;;;;;;5114705;28;20112;-63
2023/09/21 03:58:01;;;;;;;0.10;0.10;;;17.80;99.90;;;;;;5114212;28;20051;-64
2023/09/21 04:00:31;;;;;;;0.32;0.32;;;18.00;99.90;;;;;;5114023;28;20048;-64
2023/09/21 04:03:00;;;;;;;0.50;0.50;;;18.20;99.90;;;;;;5114080;28;20063;-64
2023/09/21 04:05:35;;;;;;;1.30;0.20;;;17.90;99.90;;;;;;5114120;28;20147;-63
2023/09/21 04:08:02;;;;;;;0.00;0.00;;;17.70;99.90;;;;;;5114108;28;20081;-64
2023/09/21 04:10:28;;;;;;;0.10;0.10;;;18.50;99.90;;;;;;5114025;27;20403;-64
2023/09/21 04:12:57;;;;;;;1.95;0.45;;;18.00;99.90;;;;;;5113990;27;20511;-64
2023/09/21 04:15:24;;;;;;;0.20;0.20;;;17.70;99.90;;;;;;5113948;28;20059;-64
2023/09/21 04:17:50;;;;;;;0.08;0.08;;;17.90;99.90;;;;;;5113924;28;20047;-63
2023/09/21 04:20:18;;;;;;;0.13;0.13;;;18.00;99.90;;;;;;5113566;28;20514;-64
2023/09/21 04:22:45;;;;;;;0.32;0.32;;;18.30;99.90;;;;;;5113726;28;20051;-63
2023/09/21 04:25:14;;;;;;;0.10;0.10;;;17.50;99.90;;;;;;5113718;28;20062;-64
2023/09/21 04:27:51;;;;;;;0.30;0.30;;;18.00;99.90;;;;;;5113717;27;20138;-63
2023/09/21 04:30:22;;;;;;;0.20;0.20;;;17.90;99.90;;;;;;5113636;28;20051;-64
2023/09/21 04:32:48;;;;;;;0.45;0.45;;;17.80;99.90;;;;;;5113648;28;20051;-63
2023/09/21 04:35:15;;;;;;;0.20;0.20;;;17.70;99.90;;;;;;5113549;28;20134;-64
2023/09/21 04:37:45;;;;;;;1.02;0.45;;;17.70;99.90;;;;;;5113518;28;20047;-63
2023/09/21 04:40:12;;;;;;;0.30;0.30;;;17.90;99.90;;;;;;5113510;28;20441;-64
2023/09/21 04:42:42;;;;;;;0.52;0.52;;;17.90;99.90;;;;;;5113327;28;20360;-63
2023/09/21 04:45:11;;;;;;;0.22;0.22;;;17.90;99.90;;;;;;5113481;28;20051;-63
2023/09/21 04:47:37;;;;;;;0.10;0.10;;;17.90;99.90;;;;;;5113316;28;20051;-64
2023/09/21 04:50:05;;;;;;;0.15;0.15;;;18.00;99.90;;;;;;5113294;28;20050;-63
2023/09/21 04:52:31;;;;;;;1.27;0.43;;;18.00;99.90;;;;;;5113231;28;20048;-63
2023/09/21 04:54:57;;;;;;;0.13;0.13;;;17.70;99.90;;;;;;5113286;28;20047;-63
2023/09/21 04:57:23;;;;;;;0.43;0.43;;;17.50;99.90;;;;;;5113409;28;20043;-63
2023/09/21 04:59:49;;;;;;;0.15;0.15;;;17.70;99.90;;;;;;5113301;28;20055;-63
2023/09/21 05:02:15;;;;;;;0.10;0.10;;;17.70;99.90;;;;;;5112811;28;20063;-64
2023/09/21 05:04:41;;;;;;;0.90;0.40;;;17.50;99.90;;;;;;5112969;28;20090;-63
2023/09/21 05:07:06;;;;;;;0.30;0.30;;;17.50;99.90;;;;;;5112990;28;20086;-64
2023/09/21 05:09:33;;;;;;;0.10;0.10;;;17.30;99.90;;;;;;5111932;28;20079;-63
2023/09/21 05:11:59;;;;;;;0.55;0.55;;;17.80;99.90;;;;;;5112326;28;20395;-63
2023/09/21 05:14:25;;;;;;;0.10;0.10;;;17.60;99.90;;;;;;5112749;28;20039;-63
2023/09/21 05:16:52;;;;;;;0.45;0.38;;;17.20;99.90;;;;;;5112708;28;20089;-64
2023/09/21 05:19:18;;;;;;;0.32;0.32;;;17.20;99.90;;;;;;5112756;28;20047;-63
2023/09/21 05:21:44;;;;;;;2.30;0.30;;;17.30;99.90;;;;;;5112599;27;20083;-64
2023/09/21 05:24:10;;;;;;;0.00;0.00;;;17.30;99.90;;;;;;5112656;28;20086;-63
2023/09/21 05:26:36;;;;;;;;;;;17.30;99.90;;;;;;5112050;28;20051;-64
2023/09/21 05:29:02;;;;;;;0.45;0.45;;;17.50;99.90;;;;;;5112869;28;19934;-64
2023/09/21 05:31:28;;;;;;;0.17;0.17;;;17.50;99.90;;;;;;5112653;28;20051;-63
2023/09/21 05:33:54;;;;;;;0.45;0.32;;;17.30;99.90;;;;;;5112520;28;20444;-63
2023/09/21 05:36:21;;;;;;;0.10;0.10;;;17.40;99.90;;;;;;5112139;28;20487;-63
2023/09/21 05:38:47;;;;;;;0.10;0.10;;;17.20;99.90;;;;;;5112452;28;20581;-63
2023/09/21 05:41:12;;;;;;;;;;;17.30;99.90;;;;;;5112829;28;20051;-64
2023/09/21 05:43:39;;;;;;;0.05;0.05;;;17.60;99.90;;;;;;5112260;28;20380;-64
2023/09/21 05:46:04;;;;;;;0.60;0.30;;;17.80;99.90;;;;;;5112370;28;20058;-64
2023/09/21 05:48:31;;;;;;;0.17;0.17;;;17.60;99.90;;;;;;5112364;27;20126;-63
2023/09/21 05:50:56;;;;;;;0.30;0.30;;;17.60;99.90;;;;;;5112024;28;20058;-64
2023/09/21 05:53:22;;;;;;;0.10;0.10;;;15.30;99.90;;;;;;5095845;28;20044;-69
2023/09/21 05:55:48;;;;;;;0.10;0.10;;;17.60;99.90;;;;;;5090907;28;20123;-65
2023/09/21 05:58:14;;;;;;;0.20;0.20;;;17.60;99.90;;;;;;5103768;28;20086;-65
2023/09/21 06:00:40;;;;;;;0.13;0.13;;;17.60;99.90;;;;;;5101096;28;20056;-64
2023/09/21 06:03:06;;;;;;;0.90;0.40;;;17.60;99.90;;;;;;5110644;28;20055;-64
2023/09/21 06:05:32;;;;;;;0.10;0.10;;;17.50;99.90;;;;;;5111551;28;20098;-66
2023/09/21 06:07:58;;;;;;;0.20;0.20;;;17.50;99.90;;;;;;5111895;28;20083;-64
2023/09/21 06:10:30;;;;;;;0.30;0.30;;;17.70;99.90;;;;;;5110977;28;20061;-65
2023/09/21 06:12:56;;;;;;;0.20;0.20;;;17.70;99.90;;;;;;5112023;28;20074;-64
2023/09/21 06:15:22;;;;;;;0.30;0.30;;;17.90;99.90;;;;;;5111762;28;20047;-65
2023/09/21 06:17:48;;;;;;;0.28;0.28;;;17.50;99.90;;;;;;5111212;28;20051;-65
2023/09/21 06:20:14;;;;;;;0.10;0.10;;;17.40;99.90;;;;;;5104150;28;20040;-65
2023/09/21 06:22:40;;;;;;;0.10;0.10;;;17.30;99.90;;;;;;5109298;28;20122;-66
2023/09/21 06:25:06;;;;;;;0.10;0.10;;;17.10;99.90;;;;;;5112099;28;20138;-65
2023/09/21 06:27:33;;;;;;;0.50;0.20;;;17.20;99.90;;;;;;5113656;28;20065;-64
2023/09/21 06:29:59;;;;;;;0.25;0.25;;;17.10;99.90;;;;;;5113788;28;20058;-65
2023/09/21 06:32:25;;;;;;;0.17;0.17;;;17.20;99.90;;;;;;5113667;28;20035;-64
2023/09/21 06:34:51;;;;;;;0.10;0.10;;;17.10;99.90;;;;;;5113254;28;20048;-64
2023/09/21 06:37:20;;;;;;;0.20;0.20;;;17.10;99.90;;;;;;5113662;28;20047;-65
2023/09/21 06:39:46;;;;;;;0.43;0.30;;;17.00;99.90;;;;;;5113833;28;20134;-64
2023/09/21 06:42:15;;;;;;;0.77;0.40;;;17.30;99.90;;;;;;5115634;28;20134;-65
2023/09/21 06:44:41;;;;;;;0.10;0.10;;;17.10;99.90;;;;;;5115688;28;20050;-65
2023/09/21 06:47:06;;;;;;;0.20;0.20;;;17.00;99.90;;;;;;5114382;28;20047;-64
2023/09/21 06:49:34;;;;;;;;;;;17.00;99.90;;;;;;5115029;28;20055;-65
2023/09/21 06:52:00;;;;;;;0.28;0.28;;;17.20;99.90;;;;;;5115565;28;20275;-64
2023/09/21 06:54:26;;;;;;;0.10;0.10;;;17.10;99.90;;;;;;5115544;28;20044;-65
2023/09/21 06:56:52;;;;;;;0.00;0.00;;;17.00;99.90;;;;;;5115226;28;20055;-65
2023/09/21 06:59:18;;;;;;;0.70;0.70;;;17.10;99.90;;;;;;5114983;28;20047;-65
2023/09/21 07:01:43;;;;;;;;;;;16.70;99.90;;;;;;5114905;28;20479;-65
2023/09/21 07:04:09;;;;;;;0.32;0.32;;;16.90;99.90;;;;;;5114934;28;19927;-64
2023/09/21 07:06:35;;;;;;;0.43;0.43;;;16.70;99.90;;;;;;5114141;28;20532;-65
2023/09/21 07:09:02;;;;;;;0.52;0.52;;;17.10;99.90;;;;;;5113824;28;20128;-64
2023/09/21 07:11:28;;;;;;;0.10;0.10;;;16.90;99.90;;;;;;5115201;28;20207;-65
2023/09/21 07:13:54;;;;;;;0.40;0.40;;;16.80;99.90;;;;;;5115139;28;20176;-64
2023/09/21 07:16:21;;;;;;;0.10;0.10;;;17.10;99.90;;;;;;5114096;28;20047;-65
2023/09/21 07:18:47;;;;;;;0.32;0.32;;;16.90;99.90;;;;;;5115145;28;20161;-63
2023/09/21 07:21:14;;;;;;;;;;;17.10;99.90;;;;;;5115743;28;20134;-65
2023/09/21 07:23:42;;;;;;;0.23;0.23;;;16.70;99.90;;;;;;5115099;27;19976;-63
2023/09/21 07:26:08;;;;;;;0.43;0.30;;;17.10;99.90;;;;;;5114943;28;20055;-64
2023/09/21 07:28:34;;;;;;;0.28;0.28;;;17.10;99.90;;;;;;5114894;28;20039;-63
2023/09/21 07:31:01;;;;;;;0.10;0.10;;;16.80;99.90;;;;;;5114764;28;20373;-64
2023/09/21 07:33:30;;;;;;;0.17;0.17;;;17.20;99.90;;;;;;5114770;28;20048;-64
2023/09/21 07:35:56;;;;;;;0.43;0.43;;;16.70;99.90;;;;;;5114275;28;20048;-65
2023/09/21 07:38:23;;;;;;;0.43;0.17;;;16.90;99.90;;;;;;5114694;28;20137;-64
2023/09/21 07:40:49;;;;;;;0.45;0.38;;;16.80;99.90;;;;;;5114686;27;20059;-64
2023/09/21 07:43:15;;;;;;;0.40;0.40;;;17.00;99.90;;;;;;5113245;28;20039;-64
2023/09/21 07:45:40;;;;;;;0.57;0.57;;;16.50;99.90;;;;;;5114517;28;20058;-64
2023/09/21 07:48:06;;;;;;;0.30;0.30;;;16.90;99.90;;;;;;5114437;28;20066;-63
2023/09/21 07:50:36;;;;;;;0.43;0.43;;;16.90;99.90;;;;;;5114410;28;20048;-63
2023/09/21 07:53:04;;;;;;;0.65;0.55;;;16.50;99.90;;;;;;5114390;28;20079;-64
2023/09/21 07:55:30;;;;;;;0.20;0.20;;;16.20;99.90;;;;;;5114286;28;20052;-64
2023/09/21 07:57:56;;;;;;;0.10;0.10;;;16.50;99.90;;;;;;5114254;28;20104;-63
2023/09/21 08:00:22;;;;;;;0.17;0.17;;;16.80;99.90;;;;;;5114315;28;20055;-63
2023/09/21 08:02:48;;;;;;;;;;;16.40;99.90;;;;;;5114387;28;20532;-63
2023/09/21 08:05:15;;;;;;;0.10;0.10;;;16.40;99.90;;;;;;5114147;28;20010;-63
2023/09/21 08:07:40;;;;;;;0.00;0.00;;;15.80;99.90;;;;;;5114073;28;20112;-62
2023/09/21 08:10:07;;;;;;;;;;;16.00;99.90;;;;;;5114437;28;20396;-63
2023/09/21 08:12:36;;;;;;;0.10;0.10;;;15.90;99.90;;;;;;5114046;28;19924;-63
2023/09/21 08:15:02;;;;;;;0.10;0.10;;;15.80;99.90;;;;;;5113929;28;20087;-63
2023/09/21 08:17:30;;;;;;;0.00;0.00;;;15.50;99.90;;;;;;5113869;28;20083;-64
2023/09/21 08:19:57;;;;;;;0.10;0.10;;;15.50;99.90;;;;;;5113801;28;20107;-65
2023/09/21 08:22:23;;;;;;;0.10;0.10;;;15.30;99.90;;;;;;5112628;28;20460;-64
2023/09/21 08:24:48;;;;;;;;;;;15.40;99.90;;;;;;5114166;28;20051;-64
2023/09/21 08:27:14;;;;;;;0.08;0.08;;;15.30;99.90;;;;;;5113763;27;20359;-63
2023/09/21 08:29:41;;;;;;;;;;;15.20;99.90;;;;;;5114103;28;20050;-63
2023/09/21 08:32:07;;;;;;;;;;;15.20;99.90;;;;;;5113023;28;19945;-62
2023/09/21 08:34:32;;;;;;;0.00;0.00;;;15.10;99.90;;;;;;5113569;28;20367;-62
2023/09/21 08:36:58;;;;;;;;;;;15.00;99.90;;;;;;5113975;28;20059;-62
2023/09/21 08:39:24;;;;;;;0.10;0.10;;;15.60;99.90;;;;;;5113499;28;19924;-63
2023/09/21 08:41:51;;;;;;;0.10;0.10;;;15.30;99.90;;;;;;5113277;28;20040;-61
2023/09/21 08:44:18;;;;;;;0.10;0.10;;;15.40;99.90;;;;;;5113415;28;20046;-62
2023/09/21 08:46:50;;;;;;;0.10;0.10;;;15.40;99.90;;;;;;5112464;28;20047;-63
2023/09/21 08:49:21;;;;;;;0.00;0.00;;;15.50;99.90;;;;;;5113327;28;20572;-61
2023/09/21 08:51:48;;;;;;;0.10;0.10;;;15.80;99.90;;;;;;5113368;28;20047;-61
2023/09/21 08:54:15;;;;;;;0.10;0.10;;;15.50;99.90;;;;;;5113268;28;20062;-63
2023/09/21 08:56:43;;;;;;;0.00;0.00;;;15.40;99.90;;;;;;5112986;28;20426;-62
2023/09/21 08:59:08;;;;;;;0.03;0.03;;;15.30;99.90;;;;;;5113173;28;20055;-63
2023/09/21 09:01:34;;;;;;;;;;;15.60;99.90;;;;;;5113606;28;20059;-64
2023/09/21 09:04:00;;;;;;;0.20;0.20;;;15.30;99.90;;;;;;5112911;28;19920;-62
2023/09/21 09:06:29;;;;;;;;;;;15.60;99.90;;;;;;5112583;28;20062;-61
2023/09/21 09:08:55;;;;;;;0.17;0.17;;;15.30;99.90;;;;;;5112756;28;20387;-62
2023/09/21 09:11:37;;;;;;;0.17;0.17;;;15.20;99.90;;;;;;5112940;28;20055;-61
2023/09/21 09:14:10;;;;;;;0.32;0.32;;;15.00;99.90;;;;;;5113060;28;20422;-62
2023/09/21 09:16:36;;;;;;;0.13;0.13;;;15.70;99.90;;;;;;5113116;28;20047;-62
2023/09/21 09:19:05;;;;;;;0.10;0.10;;;15.10;99.90;;;;;;5112883;28;20048;-62
2023/09/21 09:21:31;;;;;;;0.00;0.00;;;15.60;99.90;;;;;;5112816;28;20476;-61
2023/09/21 09:23:56;;;;;;;;;;;15.30;99.90;;;;;;5113086;28;20498;-61
2023/09/21 09:26:22;;;;;;;0.10;0.10;;;15.30;99.90;;;;;;5112736;28;19920;-61
2023/09/21 09:28:48;;;;;;;;;;;15.70;99.90;;;;;;5113093;28;20054;-62
2023/09/21 09:31:18;;;;;;;0.15;0.15;;;15.20;99.90;;;;;;5112869;28;19923;-61
2023/09/21 09:33:47;;;;;;;0.00;0.00;;;15.90;99.90;;;;;;5112915;28;20040;-61
2023/09/21 09:36:13;;;;;;;0.10;0.10;;;15.50;99.90;;;;;;5112406;28;20506;-61
2023/09/21 09:38:40;;;;;;;0.10;0.10;;;15.70;99.90;;;;;;5112564;28;20686;-61
2023/09/21 09:41:06;;;;;;;0.10;0.10;;;15.80;99.90;;;;;;5112176;28;20572;-64
2023/09/21 09:43:37;;;;;;;0.73;0.40;;;15.90;99.90;;;;;;5112298;28;20032;-61
2023/09/21 09:46:08;;;;;;;0.10;0.10;;;15.90;99.90;;;;;;5112356;28;20092;-62
2023/09/21 09:48:37;;;;;;;0.20;0.13;;;16.10;99.90;;;;;;5112361;28;20062;-62
2023/09/21 09:51:11;;;;;;;0.10;0.10;;;15.90;99.90;;;;;;5112237;28;20122;-61
2023/09/21 09:53:38;;;;;;;0.10;0.10;;;15.90;99.90;;;;;;5112001;28;20526;-62
2023/09/21 09:56:10;;;;;;;0.10;0.10;;;16.30;99.90;;;;;;5112168;28;20121;-62
2023/09/21 09:58:42;;;;;;;0.10;0.10;;;15.70;99.90;;;;;;5112028;28;20518;-62
2023/09/21 10:01:12;;;;;;;1.35;0.40;;;16.40;99.90;;;;;;5111759;28;20472;-62
2023/09/21 10:03:40;;;;;;;0.30;0.22;;;16.30;99.90;;;;;;5111581;28;20131;-62
2023/09/21 10:06:08;;;;;;;0.10;0.10;;;15.70;99.90;;;;;;5110737;28;20138;-63
2023/09/21 10:08:38;;;;;;;0.10;0.10;;;15.70;99.90;;;;;;5112056;28;20070;-62
2023/09/21 10:11:07;;;;;;;0.00;0.00;;;16.10;99.90;;;;;;5112100;28;20040;-62
2023/09/21 10:13:35;;;;;;;0.10;0.10;;;15.60;99.90;;;;;;5110808;28;20044;-63
2023/09/21 10:16:05;;;;;;;0.10;0.10;;;15.80;99.90;;;;;;5111963;28;20047;-62
2023/09/21 10:18:36;;;;;;;0.10;0.10;;;15.50;99.90;;;;;;5111994;28;20084;-62
2023/09/21 10:21:23;;;;;;;0.70;0.52;;;16.10;99.90;;;;;;5111939;28;20126;-62
2023/09/21 10:24:18;;;;;;;0.10;0.10;;;15.60;99.90;;;;;;5111516;28;20502;-62
2023/09/21 10:26:49;;;;;;;0.10;0.10;;;15.50;99.90;;;;;;5111942;28;20036;-62
2023/09/21 10:29:19;;;;;;;0.00;0.00;;;15.80;99.90;;;;;;5111955;28;20054;-63
2023/09/21 10:31:53;;;;;;;0.10;0.10;;;16.00;99.90;;;;;;5111810;28;20090;-62
2023/09/21 10:34:21;;;;;;;0.10;0.10;;;16.10;99.90;;;;;;5111862;28;20055;-62
2023/09/21 10:36:52;;;;;;;0.10;0.10;;;15.60;99.90;;;;;;5111794;28;20048;-61
2023/09/21 10:39:30;;;;;;;0.00;0.00;;;16.10;99.90;;;;;;5111934;28;20172;-61
2023/09/21 10:42:03;;;;;;;0.00;0.00;;;16.00;99.90;;;;;;5111623;28;20077;-64
2023/09/21 10:44:59;;;;;;;0.57;0.20;;;15.70;99.90;;;;;;5111866;28;20406;-62
2023/09/21 10:47:38;;;;;;;0.20;0.20;;;16.50;99.90;;;;;;5111761;28;20056;-62
2023/09/21 10:50:12;;;;;;;0.10;0.10;;;16.20;99.90;;;;;;5111709;28;20340;-62
2023/09/21 10:52:45;;;;;;;0.10;0.10;;;16.10;99.90;;;;;;5111732;28;20043;-62
2023/09/21 10:55:16;;;;;;;0.10;0.10;;;16.10;99.90;;;;;;5111731;28;20068;-62
2023/09/21 10:57:44;;;;;;;0.17;0.10;;;16.30;99.90;;;;;;5111691;28;20049;-62
2023/09/21 11:00:20;;;;;;;0.10;0.10;;;16.40;99.90;;;;;;5110289;28;20043;-61
2023/09/21 11:02:49;;;;;;;0.10;0.10;;;16.20;99.90;;;;;;5111408;28;20181;-62
2023/09/21 11:05:19;;;;;;;0.10;0.10;;;16.30;99.90;;;;;;5111542;28;20104;-61
2023/09/21 11:07:47;;;;;;;0.00;0.00;;;16.10;99.90;;;;;;5111579;28;20140;-62
2023/09/21 11:10:14;;;;;;;0.10;0.10;;;16.40;99.90;;;;;;5113484;28;20087;-62
2023/09/21 11:12:40;;;;;;;0.10;0.10;;;16.60;99.90;;;;;;5115472;28;20411;-61
2023/09/21 11:15:13;;;;;;;0.10;0.10;;;16.40;99.90;;;;;;5114143;28;20062;-63
2023/09/21 11:17:47;;;;;;;0.20;0.20;;;16.50;99.90;;;;;;5115188;28;20520;-62
2023/09/21 11:20:17;;;;;;;0.10;0.10;;;16.20;99.90;;;;;;5115063;28;20047;-62
2023/09/21 11:22:44;;;;;;;0.00;0.00;;;16.40;99.90;;;;;;5115017;28;20039;-61
2023/09/21 11:25:16;;;;;;;0.35;0.35;;;16.60;99.90;;;;;;5114911;28;20047;-62
2023/09/21 11:27:42;;;;;;;0.13;0.13;;;16.30;99.90;;;;;;5114887;28;20071;-63
2023/09/21 11:30:13;;;;;;;0.10;0.10;;;15.80;99.90;;;;;;5114780;28;20043;-61
2023/09/21 11:32:50;;;;;;;0.10;0.10;;;16.40;99.90;;;;;;5113506;28;20439;-62
2023/09/21 11:35:19;;;;;;;0.00;0.00;;;16.10;99.90;;;;;;5114736;28;20048;-62
2023/09/21 11:37:50;;;;;;;0.10;0.10;;;15.80;99.90;;;;;;5114349;28;20530;-62
2023/09/21 11:40:21;;;;;;;0.10;0.10;;;16.30;99.90;;;;;;5114658;28;20048;-62
2023/09/21 11:42:47;;;;;;;0.10;0.10;;;16.00;99.90;;;;;;5114548;28;20044;-62
2023/09/21 11:45:17;;;;;;;0.00;0.00;;;16.40;99.90;;;;;;5114511;27;20475;-63
2023/09/21 11:47:52;;;;;;;0.10;0.10;;;16.40;99.90;;;;;;5114456;28;20130;-63
2023/09/21 11:50:22;;;;;;;0.10;0.10;;;16.70;99.90;;;;;;5114441;28;20131;-62
2023/09/21 11:52:54;;;;;;;0.10;0.10;;;16.50;99.90;;;;;;5114441;28;20086;-62
2023/09/21 11:55:22;;;;;;;2.17;0.40;;;16.20;99.90;;;;;;5114474;28;20055;-62
2023/09/21 11:57:49;;;;;;;0.10;0.10;;;16.30;99.90;;;;;;5114312;28;20039;-62
2023/09/21 12:00:27;;;;;;;0.10;0.10;;;16.00;99.90;;;;;;5114273;28;20126;-61
2023/09/21 12:02:56;;;;;;;0.00;0.00;;;16.60;99.90;;;;;;5114127;28;20078;-61
2023/09/21 12:05:22;;;;;;;0.13;0.13;;;16.30;99.90;;;;;;5114170;28;20440;-62
2023/09/21 12:07:48;;;;;;;0.10;0.10;;;16.00;99.90;;;;;;5114161;27;20047;-61
2023/09/21 12:10:15;;;;;;;0.10;0.10;;;16.20;99.90;;;;;;5114091;28;20048;-63
2023/09/21 12:12:42;;;;;;;0.10;0.10;;;16.00;99.90;;;;;;5114311;28;20054;-62
2023/09/21 12:15:12;;;;;;;0.00;0.00;;;16.30;99.90;;;;;;5114060;28;20060;-61
2023/09/21 12:17:38;;;;;;;0.45;0.22;;;16.70;99.90;;;;;;5112722;28;20052;-62
2023/09/21 12:20:11;;;;;;;;;;;16.30;99.90;;;;;;5114401;28;20541;-61
2023/09/21 12:22:38;;;;;;;0.85;0.32;;;15.80;99.90;;;;;;5113912;28;19923;-64
2023/09/21 12:25:06;;;;;;;0.08;0.08;;;16.00;99.90;;;;;;5113878;28;20126;-62
2023/09/21 12:27:32;;;;;;;0.38;0.38;;;16.20;99.90;;;;;;5112618;28;20048;-61
2023/09/21 12:29:58;;;;;;;;;;;16.30;99.90;;;;;;5114484;28;20059;-62
2023/09/21 12:32:24;;;;;;;0.17;0.17;;;16.70;99.90;;;;;;5114045;28;19919;-61
2023/09/21 12:34:52;;;;;;;0.10;0.10;;;17.20;99.90;;;;;;5113770;28;20511;-61
2023/09/21 12:37:18;;;;;;;0.20;0.20;;;17.00;99.90;;;;;;5113388;28;20483;-62
2023/09/21 12:39:43;;;;;;;;;;;17.40;99.90;;;;;;5114016;28;20054;-62
2023/09/21 12:42:10;;;;;;;0.10;0.10;;;17.00;99.90;;;;;;5113461;28;20432;-61
2023/09/21 12:44:36;;;;;;;0.10;0.10;;;16.90;99.90;;;;;;5113470;28;20399;-62
2023/09/21 12:47:02;;;;;;;0.10;0.10;;;17.20;99.90;;;;;;5113351;28;20142;-64
2023/09/21 12:49:29;;;;;;;0.20;0.20;;;17.00;99.90;;;;;;5112251;28;20519;-61
2023/09/21 12:51:54;;;;;;;0.10;0.10;;;17.10;99.90;;;;;;5113001;28;20043;-61
2023/09/21 12:54:20;;;;;;;0.38;0.20;;;17.00;99.90;;;;;;5112922;28;20079;-61
2023/09/21 12:56:46;;;;;;;0.43;0.40;;;16.70;99.90;;;;;;5112542;28;20492;-61